createdAt,value
2022-12-26T00:01:12.972Z,11.49
2022-12-26T00:03:39.678Z,10.88
2022-12-26T00:06:15.725Z,11.60
2022-12-26T00:08:43.185Z,11.20
2022-12-26T00:11:10.302Z,10.59
2022-12-26T00:13:41.124Z,10.73
2022-12-26T00:16:17.264Z,10.72
2022-12-26T00:18:44.541Z,10.74
2022-12-26T00:21:14.141Z,10.50
2022-12-26T00:23:41.217Z,10.53
2022-12-26T00:26:17.336Z,10.39
2022-12-26T00:28:45.056Z,10.03
2022-12-26T00:31:17.529Z,11.61
2022-12-26T00:33:44.313Z,12.25
2022-12-26T00:36:14.477Z,11.22
2022-12-26T00:38:42.889Z,10.89
2022-12-26T00:41:11.403Z,10.52
2022-12-26T00:43:38.210Z,10.21
2022-12-26T00:46:05.913Z,10.19
2022-12-26T00:48:32.421Z,9.85
2022-12-26T00:50:59.009Z,9.88
2022-12-26T00:53:26.842Z,9.85
2022-12-26T00:55:53.816Z,9.87
2022-12-26T00:58:21.240Z,9.79
2022-12-26T01:00:48.707Z,9.99
2022-12-26T01:03:15.790Z,9.98
2022-12-26T01:05:44.589Z,10.16
2022-12-26T01:08:23.454Z,10.10
2022-12-26T01:10:50.419Z,9.99
2022-12-26T01:13:16.912Z,9.93
2022-12-26T01:15:53.648Z,9.86
2022-12-26T01:18:21.084Z,9.43
2022-12-26T01:20:48.693Z,9.06
2022-12-26T01:23:15.842Z,8.61
2022-12-26T01:26:17.049Z,8.99
2022-12-26T01:28:29.642Z,9.59
2022-12-26T01:31:00.300Z,10.15
2022-12-26T01:33:26.771Z,9.28
2022-12-26T01:35:53.833Z,9.10
2022-12-26T01:38:21.808Z,8.97
2022-12-26T01:40:49.936Z,8.81
2022-12-26T01:43:17.159Z,8.74
2022-12-26T01:45:50.647Z,9.46
2022-12-26T01:48:25.997Z,8.86
2022-12-26T01:50:59.652Z,8.53
2022-12-26T01:53:40.373Z,8.42
2022-12-26T01:56:12.853Z,8.69
2022-12-26T01:59:00.408Z,8.71
2022-12-26T02:01:32.793Z,8.27
2022-12-26T02:04:05.103Z,7.97
2022-12-26T02:06:34.084Z,8.45
2022-12-26T02:09:01.356Z,8.22
2022-12-26T02:11:34.971Z,8.24
2022-12-26T02:14:04.263Z,8.37
2022-12-26T02:16:30.827Z,8.32
2022-12-26T02:18:57.318Z,8.07
2022-12-26T02:21:49.669Z,8.09
2022-12-26T02:24:39.697Z,8.40
2022-12-26T02:27:24.840Z,7.93
2022-12-26T02:30:13.524Z,8.01
2022-12-26T02:33:13.686Z,8.15
2022-12-26T02:35:59.313Z,8.01
2022-12-26T02:38:49.913Z,8.19
2022-12-26T02:41:28.329Z,7.83
2022-12-26T02:44:16.425Z,7.64
2022-12-26T02:46:54.609Z,7.38
2022-12-26T02:49:41.683Z,8.01
2022-12-26T02:52:21.536Z,8.07
2022-12-26T02:55:01.661Z,8.07
2022-12-26T02:57:41.182Z,8.01
2022-12-26T03:00:18.587Z,8.10
2022-12-26T03:02:56.756Z,7.92
2022-12-26T03:05:34.110Z,7.78
2022-12-26T03:08:06.652Z,7.37
2022-12-26T03:10:36.873Z,7.71
2022-12-26T03:13:13.502Z,7.74
2022-12-26T03:15:57.332Z,8.33
2022-12-26T03:18:58.036Z,8.39
2022-12-26T03:21:18.088Z,8.34
2022-12-26T03:23:48.800Z,8.05
2022-12-26T03:26:26.838Z,8.45
2022-12-26T03:28:53.408Z,8.52
2022-12-26T03:31:19.883Z,7.86
2022-12-26T03:33:47.398Z,8.43
2022-12-26T03:36:37.477Z,8.02
2022-12-26T03:39:29.356Z,8.10
2022-12-26T03:42:10.374Z,7.59
2022-12-26T03:45:00.371Z,8.00
2022-12-26T03:47:45.314Z,8.01
2022-12-26T03:50:43.452Z,8.14
2022-12-26T03:53:35.491Z,8.03
2022-12-26T03:56:14.262Z,7.89
2022-12-26T03:58:55.655Z,7.99
2022-12-26T04:01:28.904Z,7.44
2022-12-26T04:03:59.662Z,8.12
2022-12-26T04:06:36.249Z,7.61
2022-12-26T04:09:14.924Z,7.60
2022-12-26T04:11:44.899Z,7.67
2022-12-26T04:14:34.616Z,7.85
2022-12-26T04:17:17.469Z,7.42
2022-12-26T04:19:55.698Z,7.52
2022-12-26T04:22:44.935Z,7.18
2022-12-26T04:25:48.880Z,7.45
2022-12-26T04:28:09.420Z,7.44
2022-12-26T04:30:41.905Z,7.65
2022-12-26T04:33:22.029Z,7.27
2022-12-26T04:36:02.667Z,7.02
2022-12-26T04:38:35.600Z,7.29
2022-12-26T04:41:02.713Z,7.00
2022-12-26T04:43:48.181Z,7.34
2022-12-26T04:46:21.662Z,7.54
2022-12-26T04:48:51.896Z,7.15
2022-12-26T04:51:18.385Z,7.31
2022-12-26T04:53:46.448Z,6.98
2022-12-26T04:56:13.056Z,6.78
2022-12-26T04:58:39.540Z,7.31
2022-12-26T05:01:06.057Z,7.14
2022-12-26T05:03:32.588Z,7.27
2022-12-26T05:05:59.430Z,7.02
2022-12-26T05:08:33.500Z,6.93
2022-12-26T05:10:59.949Z,7.24
2022-12-26T05:13:27.999Z,6.99
2022-12-26T05:15:54.480Z,7.23
2022-12-26T05:18:21.053Z,7.01
2022-12-26T05:20:49.945Z,6.97
2022-12-26T05:23:23.464Z,7.13
2022-12-26T05:25:50.210Z,7.01
2022-12-26T05:28:17.851Z,6.83
2022-12-26T05:30:44.366Z,6.77
2022-12-26T05:33:10.849Z,6.78
2022-12-26T05:35:39.079Z,6.66
2022-12-26T05:38:05.931Z,6.41
2022-12-26T05:40:32.420Z,6.52
2022-12-26T05:42:58.896Z,6.55
2022-12-26T05:45:25.350Z,6.87
2022-12-26T05:47:58.956Z,6.63
2022-12-26T05:50:25.556Z,6.89
2022-12-26T05:52:52.130Z,6.58
2022-12-26T05:55:18.653Z,6.91
2022-12-26T05:57:45.136Z,6.82
2022-12-26T06:00:12.366Z,6.48
2022-12-26T06:02:38.916Z,6.67
2022-12-26T06:05:05.839Z,6.56
2022-12-26T06:07:32.341Z,6.62
2022-12-26T06:09:58.908Z,6.52
2022-12-26T06:12:25.395Z,6.74
2022-12-26T06:14:51.881Z,6.32
2022-12-26T06:17:18.348Z,6.19
2022-12-26T06:19:47.051Z,6.17
2022-12-26T06:22:13.736Z,5.95
2022-12-26T06:24:40.297Z,5.94
2022-12-26T06:27:06.883Z,5.69
2022-12-26T06:29:33.352Z,6.34
2022-12-26T06:31:59.986Z,6.11
2022-12-26T06:34:26.592Z,5.91
2022-12-26T06:36:53.249Z,5.93
2022-12-26T06:39:19.805Z,5.55
2022-12-26T06:41:46.316Z,5.77
2022-12-26T06:44:17.979Z,5.11
2022-12-26T06:46:45.103Z,5.29
2022-12-26T06:49:11.591Z,5.33
2022-12-26T06:51:38.136Z,5.68
2022-12-26T06:54:04.933Z,5.91
2022-12-26T06:56:32.988Z,5.51
2022-12-26T06:59:02.863Z,5.41
2022-12-26T07:01:31.956Z,5.64
2022-12-26T07:04:01.213Z,5.28
2022-12-26T07:06:34.609Z,5.66
2022-12-26T07:09:03.041Z,5.73
2022-12-26T07:11:33.419Z,5.50
2022-12-26T07:13:59.863Z,5.15
2022-12-26T07:16:26.856Z,5.61
2022-12-26T07:18:57.835Z,5.38
2022-12-26T07:21:26.356Z,5.50
2022-12-26T07:23:54.034Z,4.87
2022-12-26T07:26:20.924Z,5.05
2022-12-26T07:28:47.815Z,5.11
2022-12-26T07:31:18.947Z,5.30
2022-12-26T07:33:50.307Z,5.24
2022-12-26T07:36:17.230Z,5.07
2022-12-26T07:38:44.491Z,5.16
2022-12-26T07:41:11.468Z,4.55
2022-12-26T07:43:37.939Z,4.80
2022-12-26T07:46:04.518Z,4.90
2022-12-26T07:48:31.032Z,4.69
2022-12-26T07:51:01.818Z,4.69
2022-12-26T07:53:29.429Z,4.88
2022-12-26T07:55:59.439Z,5.05
2022-12-26T07:58:26.530Z,4.30
2022-12-26T08:00:53.407Z,4.21
2022-12-26T08:03:20.167Z,4.61
2022-12-26T08:05:48.903Z,4.89
2022-12-26T08:08:16.234Z,4.65
2022-12-26T08:10:42.934Z,4.44
2022-12-26T08:13:09.537Z,4.42
2022-12-26T08:15:38.541Z,4.88
2022-12-26T08:18:05.132Z,4.99
2022-12-26T08:20:31.612Z,5.13
2022-12-26T08:25:29.570Z,5.04
2022-12-26T08:27:56.043Z,5.31
2022-12-26T08:30:22.520Z,5.44
2022-12-26T08:32:50.991Z,5.33
2022-12-26T08:35:17.596Z,4.76
2022-12-26T08:37:44.104Z,4.57
2022-12-26T08:40:11.190Z,4.75
2022-12-26T08:42:55.974Z,4.84
2022-12-26T08:45:25.874Z,5.04
2022-12-26T08:47:54.911Z,5.15
2022-12-26T08:50:21.533Z,5.66
2022-12-26T08:52:48.084Z,5.44
2022-12-26T08:55:14.660Z,4.80
2022-12-26T08:57:41.356Z,4.89
2022-12-26T09:00:08.887Z,5.19
2022-12-26T09:02:35.520Z,5.06
2022-12-26T09:05:02.076Z,5.01
2022-12-26T09:07:28.648Z,4.77
2022-12-26T09:09:55.101Z,5.11
2022-12-26T09:12:21.633Z,5.75
2022-12-26T09:14:50.153Z,5.58
2022-12-26T09:17:16.948Z,4.63
2022-12-26T09:19:43.439Z,4.96
2022-12-26T09:22:09.917Z,4.59
2022-12-26T09:24:36.371Z,4.97
2022-12-26T09:27:02.952Z,4.34
2022-12-26T09:29:29.408Z,4.57
2022-12-26T09:31:55.898Z,4.87
2022-12-26T09:34:22.732Z,4.17
2022-12-26T09:36:49.173Z,4.52
2022-12-26T09:39:15.635Z,4.53
2022-12-26T09:41:48.080Z,4.43
2022-12-26T09:44:24.862Z,5.33
2022-12-26T09:46:58.784Z,6.13
2022-12-26T09:49:34.684Z,8.20
2022-12-26T09:52:10.705Z,11.36
2022-12-26T09:54:49.459Z,9.12
2022-12-26T09:57:29.824Z,6.86
2022-12-26T10:00:01.266Z,11.40
2022-12-26T10:02:28.268Z,16.32
2022-12-26T10:04:54.982Z,11.76
2022-12-26T10:07:42.566Z,6.46
2022-12-26T10:10:10.704Z,7.80
2022-12-26T10:12:54.594Z,6.82
2022-12-26T10:15:52.263Z,7.85
2022-12-26T10:18:51.314Z,5.37
2022-12-26T10:21:49.323Z,8.90
2022-12-26T10:24:21.942Z,11.81
2022-12-26T10:26:53.556Z,6.25
2022-12-26T10:29:30.137Z,7.53
2022-12-26T10:32:08.416Z,6.83
2022-12-26T10:34:44.070Z,5.82
2022-12-26T10:37:26.370Z,5.08
2022-12-26T10:40:07.636Z,5.15
2022-12-26T10:42:38.073Z,4.87
2022-12-26T10:45:44.987Z,4.81
2022-12-26T10:48:15.563Z,4.71
2022-12-26T10:50:49.568Z,4.98
2022-12-26T10:53:17.342Z,4.65
2022-12-26T10:55:44.352Z,4.41
2022-12-26T10:58:22.543Z,4.74
2022-12-26T11:00:49.695Z,4.49
2022-12-26T11:03:19.369Z,4.76
2022-12-26T11:06:07.589Z,4.85
2022-12-26T11:08:48.775Z,4.71
2022-12-26T11:11:17.913Z,4.79
2022-12-26T11:14:01.828Z,4.62
2022-12-26T11:16:37.748Z,5.22
2022-12-26T11:19:04.396Z,4.78
2022-12-26T11:21:32.473Z,4.61
2022-12-26T11:24:07.945Z,4.39
2022-12-26T11:26:35.726Z,4.56
2022-12-26T11:29:14.762Z,4.40
2022-12-26T11:31:57.961Z,4.28
2022-12-26T11:34:37.915Z,4.53
2022-12-26T11:37:07.209Z,4.99
2022-12-26T11:39:37.731Z,4.88
2022-12-26T11:42:13.057Z,4.39
2022-12-26T11:44:44.835Z,4.47
2022-12-26T11:47:17.742Z,4.48
2022-12-26T11:49:57.276Z,4.54
2022-12-26T11:52:44.247Z,4.90
2022-12-26T11:55:22.722Z,5.06
2022-12-26T11:58:20.528Z,5.06
2022-12-26T12:00:49.619Z,5.26
2022-12-26T12:03:21.077Z,5.41
2022-12-26T12:06:13.475Z,5.44
2022-12-26T12:09:18.905Z,5.05
2022-12-26T12:11:51.269Z,5.10
2022-12-26T12:14:54.315Z,5.52
2022-12-26T12:17:28.985Z,5.06
2022-12-26T12:20:59.980Z,5.28
2022-12-26T12:23:39.375Z,5.39
2022-12-26T12:26:21.491Z,5.22
2022-12-26T12:29:06.115Z,5.53
2022-12-26T12:32:08.565Z,5.38
2022-12-26T12:34:57.614Z,5.14
2022-12-26T12:37:34.672Z,5.38
2022-12-26T12:40:35.661Z,5.63
2022-12-26T12:43:26.307Z,5.42
2022-12-26T12:46:01.073Z,5.81
2022-12-26T12:48:39.821Z,5.30
2022-12-26T12:51:54.305Z,5.84
2022-12-26T12:54:49.335Z,8.12
2022-12-26T12:57:34.226Z,9.19
2022-12-26T13:00:15.681Z,6.88
2022-12-26T13:02:51.639Z,7.50
2022-12-26T13:05:44.529Z,6.24
2022-12-26T13:08:25.534Z,6.00
2022-12-26T13:10:59.884Z,9.04
2022-12-26T13:13:37.576Z,8.14
2022-12-26T13:16:18.877Z,7.09
2022-12-26T13:18:58.361Z,6.70
2022-12-26T13:21:28.689Z,6.75
2022-12-26T13:24:04.996Z,6.58
2022-12-26T13:26:40.458Z,6.01
2022-12-26T13:29:18.089Z,19.86
2022-12-26T13:31:45.938Z,27.06
2022-12-26T13:34:19.943Z,24.73
2022-12-26T13:36:52.509Z,8.07
2022-12-26T13:39:27.036Z,6.28
2022-12-26T13:42:00.772Z,6.40
2022-12-26T13:44:27.658Z,6.97
2022-12-26T13:46:57.323Z,7.03
2022-12-26T13:49:32.663Z,7.37
2022-12-26T13:52:20.127Z,6.90
2022-12-26T13:54:49.293Z,6.22
2022-12-26T13:57:36.465Z,6.44
2022-12-26T14:00:44.134Z,6.40
2022-12-26T14:03:21.419Z,5.92
2022-12-26T14:06:29.531Z,5.94
2022-12-26T14:09:05.692Z,6.26
2022-12-26T14:11:51.732Z,6.07
2022-12-26T14:14:38.489Z,4.96
2022-12-26T14:17:23.583Z,5.36
2022-12-26T14:20:10.956Z,5.77
2022-12-26T14:22:53.142Z,6.40
2022-12-26T14:25:30.435Z,6.95
2022-12-26T14:28:23.447Z,6.63
2022-12-26T14:30:55.823Z,5.88
2022-12-26T14:33:38.102Z,7.16
2022-12-26T14:36:25.409Z,8.79
2022-12-26T14:39:23.568Z,6.71
2022-12-26T14:42:08.241Z,6.43
2022-12-26T14:44:34.646Z,6.02
2022-12-26T14:47:03.841Z,5.49
2022-12-26T14:49:35.157Z,5.66
2022-12-26T14:52:31.308Z,5.29
2022-12-26T14:54:57.924Z,5.94
2022-12-26T14:57:47.525Z,5.64
2022-12-26T15:00:23.032Z,5.98
2022-12-26T15:03:20.694Z,5.47
2022-12-26T15:05:50.740Z,5.55
2022-12-26T15:09:00.699Z,5.71
2022-12-26T15:12:20.988Z,6.38
2022-12-26T15:15:17.809Z,6.20
2022-12-26T15:18:04.818Z,6.13
2022-12-26T15:21:08.194Z,6.73
2022-12-26T15:23:55.713Z,6.85
2022-12-26T15:26:40.478Z,6.62
2022-12-26T15:29:19.107Z,6.13
2022-12-26T15:31:54.665Z,6.52
2022-12-26T15:34:37.828Z,6.21
2022-12-26T15:37:08.157Z,6.11
2022-12-26T15:39:49.077Z,5.93
2022-12-26T15:42:34.399Z,6.19
2022-12-26T15:45:26.138Z,6.07
2022-12-26T15:48:12.431Z,5.95
2022-12-26T15:50:57.791Z,6.50
2022-12-26T15:54:01.235Z,6.10
2022-12-26T15:56:46.606Z,5.81
2022-12-26T15:59:38.341Z,5.47
2022-12-26T16:02:12.923Z,5.26
2022-12-26T16:04:47.031Z,5.30
2022-12-26T16:07:27.218Z,4.72
2022-12-26T16:09:55.383Z,5.31
2022-12-26T16:12:32.242Z,5.44
2022-12-26T16:15:10.716Z,6.07
2022-12-26T16:17:39.125Z,8.25
2022-12-26T16:20:28.799Z,8.60
2022-12-26T16:22:55.311Z,8.32
2022-12-26T16:25:25.775Z,8.64
2022-12-26T16:27:56.863Z,7.84
2022-12-26T16:30:27.730Z,8.45
2022-12-26T16:32:55.382Z,7.93
2022-12-26T16:35:48.128Z,7.22
2022-12-26T16:38:19.609Z,7.69
2022-12-26T16:40:49.990Z,7.20
2022-12-26T16:43:19.376Z,9.93
2022-12-26T16:45:51.000Z,8.30
2022-12-26T16:48:21.828Z,7.53
2022-12-26T16:50:52.148Z,7.78
2022-12-26T16:53:25.211Z,7.49
2022-12-26T16:55:58.504Z,7.59
2022-12-26T16:58:34.606Z,7.73
2022-12-26T17:01:01.021Z,6.89
2022-12-26T17:03:48.237Z,6.76
2022-12-26T17:06:30.575Z,6.85
2022-12-26T17:09:06.765Z,7.12
2022-12-26T17:11:45.509Z,7.20
2022-12-26T17:14:22.479Z,7.25
2022-12-26T17:17:00.188Z,8.29
2022-12-26T17:19:30.236Z,6.68
2022-12-26T17:22:15.170Z,6.84
2022-12-26T17:24:43.415Z,6.14
2022-12-26T17:27:17.904Z,5.97
2022-12-26T17:30:17.976Z,5.65
2022-12-26T17:32:46.335Z,5.80
2022-12-26T17:35:16.996Z,4.96
2022-12-26T17:37:45.699Z,6.21
2022-12-26T17:40:14.920Z,5.00
2022-12-26T17:42:51.871Z,4.57
2022-12-26T17:45:22.491Z,4.08
2022-12-26T17:47:54.147Z,3.41
2022-12-26T17:50:23.354Z,3.00
2022-12-26T17:52:50.600Z,3.20
2022-12-26T17:55:24.081Z,2.60
2022-12-26T17:57:50.895Z,3.42
2022-12-26T18:00:20.888Z,2.52
2022-12-26T18:02:47.941Z,2.71
2022-12-26T18:05:15.279Z,2.94
2022-12-26T18:07:43.386Z,6.06
2022-12-26T18:10:22.562Z,3.08
2022-12-26T18:12:50.137Z,2.55
2022-12-26T18:15:17.725Z,2.32
2022-12-26T18:17:45.668Z,4.08
2022-12-26T18:20:22.042Z,4.06
2022-12-26T18:22:49.129Z,4.22
2022-12-26T18:25:19.280Z,3.47
2022-12-26T18:27:46.255Z,2.96
2022-12-26T18:30:17.306Z,2.19
2022-12-26T18:32:44.367Z,2.54
2022-12-26T18:35:12.663Z,2.69
2022-12-26T18:37:42.910Z,3.44
2022-12-26T18:40:33.101Z,4.06
2022-12-26T18:42:59.562Z,6.00
2022-12-26T18:45:26.309Z,5.12
2022-12-26T18:47:53.020Z,3.91
2022-12-26T18:50:20.287Z,2.31
2022-12-26T18:52:53.171Z,1.99
2022-12-26T18:55:20.819Z,1.51
2022-12-26T18:57:47.279Z,2.44
2022-12-26T19:00:16.134Z,5.13
2022-12-26T19:02:42.637Z,2.52
2022-12-26T19:05:22.076Z,2.21
2022-12-26T19:07:49.551Z,2.23
2022-12-26T19:10:22.060Z,2.12
2022-12-26T19:12:49.096Z,3.18
2022-12-26T19:15:15.728Z,2.35
2022-12-26T19:17:43.300Z,1.60
2022-12-26T19:20:19.850Z,2.25
2022-12-26T19:22:47.514Z,4.45
2022-12-26T19:25:14.999Z,3.38
2022-12-26T19:27:41.560Z,2.96
2022-12-26T19:30:08.982Z,2.54
2022-12-26T19:32:35.547Z,2.05
2022-12-26T19:35:02.151Z,3.52
2022-12-26T19:37:28.891Z,3.04
2022-12-26T19:39:55.509Z,1.81
2022-12-26T19:42:22.059Z,2.20
2022-12-26T19:44:48.645Z,2.68
2022-12-26T19:47:15.136Z,2.54
2022-12-26T19:49:42.406Z,3.15
2022-12-26T19:52:12.613Z,6.27
2022-12-26T19:54:39.226Z,3.34
2022-12-26T19:57:06.144Z,1.75
2022-12-26T19:59:32.947Z,4.49
2022-12-26T20:01:59.633Z,5.19
2022-12-26T20:04:26.342Z,6.51
2022-12-26T20:06:52.857Z,6.03
2022-12-26T20:09:19.350Z,4.28
2022-12-26T20:11:48.644Z,3.99
2022-12-26T20:14:18.981Z,4.93
2022-12-26T20:17:04.860Z,2.68
2022-12-26T20:19:31.823Z,6.93
2022-12-26T20:21:58.287Z,2.40
2022-12-26T20:24:24.831Z,2.00
2022-12-26T20:26:51.344Z,2.46
2022-12-26T20:29:17.991Z,3.02
2022-12-26T20:31:44.597Z,2.09
2022-12-26T20:34:11.494Z,2.08
2022-12-26T20:36:39.400Z,1.85
2022-12-26T20:39:10.172Z,2.89
2022-12-26T20:41:37.055Z,4.16
2022-12-26T20:44:03.559Z,3.12
2022-12-26T20:46:32.223Z,3.63
2022-12-26T20:49:00.211Z,3.94
2022-12-26T20:51:36.383Z,4.84
2022-12-26T20:54:08.251Z,3.18
2022-12-26T20:56:35.934Z,3.03
2022-12-26T20:59:03.457Z,2.72
2022-12-26T21:01:30.007Z,2.59
2022-12-26T21:03:57.703Z,2.00
2022-12-26T21:06:29.817Z,1.88
2022-12-26T21:08:57.562Z,2.57
2022-12-26T21:11:29.215Z,2.43
2022-12-26T21:13:59.322Z,3.07
2022-12-26T21:16:39.255Z,3.01
2022-12-26T21:19:12.529Z,2.10
2022-12-26T21:21:43.854Z,2.28
2022-12-26T21:24:17.329Z,3.19
2022-12-26T21:26:45.302Z,3.56
2022-12-26T21:29:15.604Z,4.78
2022-12-26T21:31:42.923Z,5.02
2022-12-26T21:34:12.656Z,2.83
2022-12-26T21:36:39.112Z,2.00
2022-12-26T21:39:08.663Z,1.91
2022-12-26T21:41:36.739Z,1.70
2022-12-26T21:44:03.289Z,1.70
2022-12-26T21:46:29.880Z,1.56
2022-12-26T21:48:56.392Z,1.58
2022-12-26T21:51:24.192Z,2.83
2022-12-26T21:53:50.644Z,3.07
2022-12-26T21:56:17.731Z,2.65
2022-12-26T21:58:44.665Z,2.02
2022-12-26T22:01:17.620Z,1.95
2022-12-26T22:03:44.243Z,2.01
2022-12-26T22:06:16.429Z,3.95
2022-12-26T22:08:44.196Z,2.94
2022-12-26T22:11:17.394Z,2.27
2022-12-26T22:13:43.838Z,1.75
2022-12-26T22:16:12.410Z,1.77
2022-12-26T22:18:47.157Z,1.54
2022-12-26T22:21:20.563Z,1.60
2022-12-26T22:23:48.164Z,1.60
2022-12-26T22:26:15.139Z,1.72
2022-12-26T22:28:42.284Z,2.09
2022-12-26T22:31:17.510Z,1.97
2022-12-26T22:33:44.031Z,1.66
2022-12-26T22:36:10.495Z,1.60
2022-12-26T22:38:37.889Z,1.74
2022-12-26T22:41:04.943Z,1.97
2022-12-26T22:43:31.843Z,1.86
2022-12-26T22:45:58.360Z,1.83
2022-12-26T22:48:25.216Z,1.69
2022-12-26T22:50:53.813Z,1.82
2022-12-26T22:53:26.214Z,1.97
2022-12-26T22:56:00.463Z,1.89
2022-12-26T22:58:28.232Z,1.65
2022-12-26T23:00:55.451Z,1.82
2022-12-26T23:03:22.597Z,2.11
2022-12-26T23:05:49.592Z,1.94
2022-12-26T23:08:20.532Z,2.38
2022-12-26T23:10:48.128Z,1.92
2022-12-26T23:13:15.939Z,1.94
2022-12-26T23:15:54.515Z,2.00
2022-12-26T23:18:34.270Z,1.61
2022-12-26T23:21:07.880Z,1.89
2022-12-26T23:23:34.547Z,1.72
2022-12-26T23:26:01.413Z,2.21
2022-12-26T23:28:28.283Z,1.70
2022-12-26T23:30:54.798Z,1.30
2022-12-26T23:33:21.299Z,1.58
2022-12-26T23:35:47.835Z,1.24
2022-12-26T23:38:14.299Z,1.19
2022-12-26T23:40:40.770Z,0.98
2022-12-26T23:43:07.237Z,0.84
2022-12-26T23:45:33.709Z,0.94
2022-12-26T23:48:00.163Z,0.88
2022-12-26T23:50:26.635Z,0.78
2022-12-26T23:52:53.118Z,0.83
2022-12-26T23:55:19.693Z,1.06
2022-12-26T23:57:46.171Z,0.73
